createdAt,value
2022-12-04T00:01:06.328Z,94649.81
2022-12-04T00:03:33.137Z,94657.72
2022-12-04T00:06:08.707Z,94661.66
2022-12-04T00:08:35.765Z,94647.47
2022-12-04T00:11:04.807Z,94640.75
2022-12-04T00:13:32.364Z,94635.00
2022-12-04T00:15:59.453Z,94634.16
2022-12-04T00:18:26.534Z,94651.44
2022-12-04T00:20:53.530Z,94653.94
2022-12-04T00:23:20.089Z,94646.19
2022-12-04T00:25:48.834Z,94638.28
2022-12-04T00:28:17.041Z,94622.97
2022-12-04T00:30:45.259Z,94629.25
2022-12-04T00:33:14.901Z,94627.75
2022-12-04T00:35:41.673Z,94643.78
2022-12-04T00:38:08.238Z,94642.69
2022-12-04T00:40:34.833Z,94632.88
2022-12-04T00:43:01.576Z,94630.59
2022-12-04T00:45:28.195Z,94626.84
2022-12-04T00:47:54.887Z,94628.41
2022-12-04T00:50:21.729Z,94623.03
2022-12-04T00:52:48.308Z,94623.34
2022-12-04T00:55:14.899Z,94632.28
2022-12-04T00:57:41.854Z,94633.75
2022-12-04T01:00:08.796Z,94640.19
2022-12-04T01:02:35.406Z,94648.97
2022-12-04T01:05:02.204Z,94636.78
2022-12-04T01:07:28.798Z,94643.41
2022-12-04T01:09:55.658Z,94632.22
2022-12-04T01:12:22.436Z,94639.69
2022-12-04T01:14:49.067Z,94633.75
2022-12-04T01:17:15.669Z,94635.00
2022-12-04T01:19:42.696Z,94644.63
2022-12-04T01:22:09.183Z,94648.81
2022-12-04T01:24:35.690Z,94638.34
2022-12-04T01:27:02.395Z,94636.88
2022-12-04T01:29:28.890Z,94642.22
2022-12-04T01:31:55.430Z,94634.75
2022-12-04T01:34:22.220Z,94631.00
2022-12-04T01:36:48.749Z,94634.00
2022-12-04T01:39:15.311Z,94626.06
2022-12-04T01:41:42.052Z,94632.72
2022-12-04T01:44:15.344Z,94631.13
2022-12-04T01:46:47.405Z,94621.16
2022-12-04T01:49:22.439Z,94622.66
2022-12-04T01:51:56.446Z,94620.59
2022-12-04T01:54:28.688Z,94620.31
2022-12-04T01:57:03.424Z,94619.16
2022-12-04T01:59:35.934Z,94615.69
2022-12-04T02:02:14.793Z,94620.06
2022-12-04T02:04:43.528Z,94618.00
2022-12-04T02:07:11.776Z,94618.03
2022-12-04T02:09:40.070Z,94621.00
2022-12-04T02:12:20.486Z,94612.53
2022-12-04T02:15:11.597Z,94616.75
2022-12-04T02:17:59.739Z,94607.78
2022-12-04T02:20:55.821Z,94609.66
2022-12-04T02:24:00.877Z,94605.56
2022-12-04T02:26:39.617Z,94608.88
2022-12-04T02:29:38.255Z,94618.44
2022-12-04T02:32:25.333Z,94612.81
2022-12-04T02:35:02.101Z,94617.06
2022-12-04T02:37:36.728Z,94613.50
2022-12-04T02:40:39.629Z,94610.56
2022-12-04T02:43:20.911Z,94597.97
2022-12-04T02:45:55.062Z,94610.47
2022-12-04T02:48:24.516Z,94612.94
2022-12-04T02:50:54.072Z,94620.50
2022-12-04T02:53:27.053Z,94612.81
2022-12-04T02:56:16.231Z,94604.19
2022-12-04T02:58:49.551Z,94606.41
2022-12-04T03:01:20.920Z,94603.25
2022-12-04T03:03:57.885Z,94600.78
2022-12-04T03:06:27.799Z,94609.47
2022-12-04T03:09:20.620Z,94614.09
2022-12-04T03:11:56.738Z,94613.47
2022-12-04T03:14:35.659Z,94606.06
2022-12-04T03:17:08.243Z,94612.69
2022-12-04T03:19:44.165Z,94618.97
2022-12-04T03:22:17.370Z,94620.97
2022-12-04T03:24:50.190Z,94628.28
2022-12-04T03:27:46.451Z,94621.47
2022-12-04T03:30:16.907Z,94623.22
2022-12-04T03:32:46.433Z,94611.59
2022-12-04T03:35:20.222Z,94618.97
2022-12-04T03:37:52.839Z,94612.31
2022-12-04T03:40:34.472Z,94591.59
2022-12-04T03:43:07.663Z,94598.06
2022-12-04T03:45:48.697Z,94600.63
2022-12-04T03:48:19.616Z,94602.56
2022-12-04T03:51:00.080Z,94594.22
2022-12-04T03:53:38.514Z,94600.25
2022-12-04T03:56:12.376Z,94600.66
2022-12-04T03:58:45.377Z,94568.88
2022-12-04T04:01:14.169Z,94582.81
2022-12-04T04:03:47.879Z,94589.28
2022-12-04T04:06:20.783Z,94594.88
2022-12-04T04:08:52.495Z,94593.53
2022-12-04T04:11:57.659Z,94599.41
2022-12-04T04:14:49.779Z,94594.06
2022-12-04T04:17:38.984Z,94591.06
2022-12-04T04:20:32.741Z,94586.88
2022-12-04T04:23:20.304Z,94595.22
2022-12-04T04:25:47.471Z,94593.66
2022-12-04T04:28:37.809Z,94590.53
2022-12-04T04:31:39.492Z,94595.22
2022-12-04T04:34:33.867Z,94594.50
2022-12-04T04:37:03.319Z,94599.09
2022-12-04T04:39:42.465Z,94600.97
2022-12-04T04:42:20.090Z,94601.47
2022-12-04T04:44:57.695Z,94596.38
2022-12-04T04:47:44.857Z,94581.56
2022-12-04T04:50:13.973Z,94596.38
2022-12-04T04:52:46.335Z,94589.06
2022-12-04T04:55:14.882Z,94605.28
2022-12-04T04:57:41.464Z,94600.09
2022-12-04T05:00:12.154Z,94598.19
2022-12-04T05:02:38.903Z,94597.59
2022-12-04T05:05:06.105Z,94603.81
2022-12-04T05:07:32.703Z,94597.78
2022-12-04T05:09:59.600Z,94601.59
2022-12-04T05:12:26.251Z,94600.00
2022-12-04T05:14:52.778Z,94601.59
2022-12-04T05:17:19.383Z,94596.31
2022-12-04T05:19:55.692Z,94596.38
2022-12-04T05:22:35.638Z,94613.72
2022-12-04T05:25:03.605Z,94619.16
2022-12-04T05:27:31.125Z,94617.34
2022-12-04T05:29:59.236Z,94617.94
2022-12-04T05:32:27.876Z,94594.75
2022-12-04T05:34:56.225Z,94611.38
2022-12-04T05:37:23.068Z,94624.19
2022-12-04T05:39:49.669Z,94614.75
2022-12-04T05:42:16.465Z,94615.16
2022-12-04T05:44:43.349Z,94612.28
2022-12-04T05:47:10.197Z,94610.22
2022-12-04T05:49:36.800Z,94622.13
2022-12-04T05:52:05.802Z,94625.28
2022-12-04T05:54:32.344Z,94624.78
2022-12-04T05:56:59.136Z,94610.88
2022-12-04T05:59:25.725Z,94615.97
2022-12-04T06:01:52.405Z,94622.25
2022-12-04T06:04:19.029Z,94611.97
2022-12-04T06:06:45.598Z,94627.88
2022-12-04T06:09:12.215Z,94615.97
2022-12-04T06:11:41.123Z,94615.22
2022-12-04T06:14:10.769Z,94622.13
2022-12-04T06:16:40.315Z,94632.28
2022-12-04T06:19:10.043Z,94626.13
2022-12-04T06:21:40.118Z,94620.91
2022-12-04T06:24:08.024Z,94631.53
2022-12-04T06:26:34.563Z,94639.41
2022-12-04T06:29:01.332Z,94640.22
2022-12-04T06:31:29.916Z,94646.03
2022-12-04T06:33:58.751Z,94646.63
2022-12-04T06:36:25.976Z,94652.53
2022-12-04T06:38:54.958Z,94658.03
2022-12-04T06:41:22.336Z,94661.72
2022-12-04T06:43:50.742Z,94662.81
2022-12-04T06:46:25.457Z,94668.03
2022-12-04T06:48:52.448Z,94663.00
2022-12-04T06:51:24.493Z,94665.84
2022-12-04T06:53:52.473Z,94661.44
2022-12-04T06:56:22.474Z,94661.72
2022-12-04T06:58:51.018Z,94663.13
2022-12-04T07:01:19.812Z,94670.34
2022-12-04T07:03:51.346Z,94667.59
2022-12-04T07:06:21.523Z,94664.94
2022-12-04T07:08:51.681Z,94653.50
2022-12-04T07:11:19.362Z,94662.75
2022-12-04T07:13:45.884Z,94661.03
2022-12-04T07:16:14.342Z,94666.22
2022-12-04T07:18:41.444Z,94655.44
2022-12-04T07:21:10.567Z,94654.31
2022-12-04T07:23:37.286Z,94664.72
2022-12-04T07:26:09.028Z,94651.50
2022-12-04T07:28:36.810Z,94649.38
2022-12-04T07:31:08.389Z,94654.59
2022-12-04T07:33:35.253Z,94650.00
2022-12-04T07:36:04.360Z,94647.47
2022-12-04T07:38:31.817Z,94644.53
2022-12-04T07:41:03.156Z,94644.00
2022-12-04T07:43:30.895Z,94636.34
2022-12-04T07:45:58.225Z,94648.72
2022-12-04T07:48:30.242Z,94649.25
2022-12-04T07:51:11.386Z,94662.97
2022-12-04T07:53:38.915Z,94668.50
2022-12-04T07:56:06.803Z,94661.59
2022-12-04T07:58:34.154Z,94674.44
2022-12-04T08:01:09.843Z,94666.22
2022-12-04T08:03:38.933Z,94654.31
2022-12-04T08:06:09.017Z,94660.28
2022-12-04T08:08:36.414Z,94662.13
2022-12-04T08:11:08.647Z,94669.25
2022-12-04T08:13:35.705Z,94674.47
2022-12-04T08:16:03.931Z,94665.56
2022-12-04T08:18:30.872Z,94661.97
2022-12-04T08:21:10.346Z,94663.84
2022-12-04T08:23:38.415Z,94668.84
2022-12-04T08:26:05.824Z,94671.88
2022-12-04T08:28:32.638Z,94653.25
2022-12-04T08:31:20.820Z,94660.97
2022-12-04T08:33:49.377Z,94667.47
2022-12-04T08:36:19.707Z,94671.13
2022-12-04T08:38:47.342Z,94667.47
2022-12-04T08:41:16.126Z,94656.59
2022-12-04T08:43:43.103Z,94661.53
2022-12-04T08:46:13.060Z,94657.88
2022-12-04T08:48:39.725Z,94648.44
2022-12-04T08:51:10.337Z,94664.47
2022-12-04T08:53:37.133Z,94653.16
2022-12-04T08:56:04.811Z,94657.31
2022-12-04T08:58:31.782Z,94650.75
2022-12-04T09:01:07.903Z,94654.56
2022-12-04T09:03:35.197Z,94642.41
2022-12-04T09:06:04.518Z,94650.75
2022-12-04T09:08:32.553Z,94649.56
2022-12-04T09:11:07.005Z,94658.41
2022-12-04T09:13:34.136Z,94650.63
2022-12-04T09:16:05.433Z,94647.06
2022-12-04T09:18:32.211Z,94654.88
2022-12-04T09:21:01.109Z,94662.97
2022-12-04T09:23:28.882Z,94660.91
2022-12-04T09:25:55.407Z,94670.34
2022-12-04T09:28:22.094Z,94655.97
2022-12-04T09:31:03.232Z,94667.44
2022-12-04T09:33:30.901Z,94676.44
2022-12-04T09:36:01.752Z,94676.59
2022-12-04T09:38:29.916Z,94671.13
2022-12-04T09:41:05.594Z,94683.91
2022-12-04T09:43:36.572Z,94683.84
2022-12-04T09:46:12.374Z,94684.44
2022-12-04T09:48:43.210Z,94687.81
2022-12-04T09:51:18.826Z,94697.41
2022-12-04T09:53:51.405Z,94696.09
2022-12-04T09:56:20.042Z,94695.28
2022-12-04T09:58:49.389Z,94691.03
2022-12-04T10:01:34.395Z,94691.59
2022-12-04T10:04:05.913Z,94700.09
2022-12-04T10:06:58.433Z,94692.69
2022-12-04T10:09:42.364Z,94701.44
2022-12-04T10:12:38.424Z,94699.63
2022-12-04T10:15:23.127Z,94696.38
2022-12-04T10:18:08.255Z,94689.41
2022-12-04T10:20:46.867Z,94684.31
2022-12-04T10:23:44.468Z,94688.53
2022-12-04T10:26:17.569Z,94676.28
2022-12-04T10:28:55.064Z,94677.84
2022-12-04T10:31:22.284Z,94660.50
2022-12-04T10:33:54.567Z,94675.50
2022-12-04T10:36:28.154Z,94677.34
2022-12-04T10:39:14.428Z,94677.16
2022-12-04T10:41:50.188Z,94684.25
2022-12-04T10:44:19.440Z,94670.03
2022-12-04T10:46:47.072Z,94673.19
2022-12-04T10:49:36.877Z,94691.41
2022-12-04T10:52:04.868Z,94687.16
2022-12-04T10:54:35.736Z,94677.19
2022-12-04T10:57:10.373Z,94687.56
2022-12-04T10:59:49.400Z,94683.94
2022-12-04T11:02:20.571Z,94678.53
2022-12-04T11:04:57.428Z,94678.81
2022-12-04T11:07:30.255Z,94667.59
2022-12-04T11:10:04.727Z,94669.16
2022-12-04T11:12:32.541Z,94670.56
2022-12-04T11:15:07.838Z,94663.31
2022-12-04T11:17:34.694Z,94655.66
2022-12-04T11:20:07.393Z,94661.63
2022-12-04T11:22:48.000Z,94650.81
2022-12-04T11:25:18.838Z,94642.63
2022-12-04T11:27:51.902Z,94645.72
2022-12-04T11:30:28.973Z,94642.47
2022-12-04T11:32:56.550Z,94634.69
2022-12-04T11:35:25.911Z,94639.34
2022-12-04T11:37:58.989Z,94637.03
2022-12-04T11:40:26.831Z,94638.19
2022-12-04T11:43:20.472Z,94628.53
2022-12-04T11:46:20.283Z,94627.13
2022-12-04T11:48:47.007Z,94621.81
2022-12-04T11:51:32.337Z,94612.19
2022-12-04T11:54:08.119Z,94611.28
2022-12-04T11:56:39.886Z,94610.78
2022-12-04T11:59:09.568Z,94601.16
2022-12-04T12:01:51.976Z,94602.06
2022-12-04T12:04:43.181Z,94609.06
2022-12-04T12:07:39.345Z,94603.16
2022-12-04T12:10:06.135Z,94597.25
2022-12-04T12:13:02.252Z,94594.53
2022-12-04T12:15:56.467Z,94580.34
2022-12-04T12:18:42.548Z,94571.59
2022-12-04T12:21:21.119Z,94576.75
2022-12-04T12:24:14.069Z,94569.00
2022-12-04T12:27:06.944Z,94573.13
2022-12-04T12:29:51.595Z,94561.72
2022-12-04T12:32:39.392Z,94559.69
2022-12-04T12:35:19.905Z,94555.69
2022-12-04T12:37:52.781Z,94552.69
2022-12-04T12:40:43.246Z,94559.19
2022-12-04T12:43:09.905Z,94550.41
2022-12-04T12:45:36.349Z,94553.22
2022-12-04T12:48:35.084Z,94550.00
2022-12-04T12:51:29.089Z,94539.31
2022-12-04T12:54:03.928Z,94538.78
2022-12-04T12:56:46.161Z,94541.63
2022-12-04T12:59:21.058Z,94549.16
2022-12-04T13:02:00.197Z,94538.63
2022-12-04T13:04:53.088Z,94543.63
2022-12-04T13:07:47.513Z,94545.88
2022-12-04T13:10:25.692Z,94545.75
2022-12-04T13:12:59.895Z,94545.72
2022-12-04T13:15:44.834Z,94540.44
2022-12-04T13:18:30.441Z,94549.31
2022-12-04T13:21:01.755Z,94539.97
2022-12-04T13:23:54.783Z,94557.31
2022-12-04T13:26:47.793Z,94556.78
2022-12-04T13:29:37.869Z,94562.94
2022-12-04T13:32:32.185Z,94561.13
2022-12-04T13:35:14.417Z,94559.63
2022-12-04T13:38:29.162Z,94560.41
2022-12-04T13:41:00.102Z,94564.63
2022-12-04T13:43:36.819Z,94567.00
2022-12-04T13:46:07.655Z,94570.75
2022-12-04T13:48:39.900Z,94572.97
2022-12-04T13:51:25.904Z,94575.88
2022-12-04T13:54:20.345Z,94577.59
2022-12-04T13:56:52.915Z,94576.13
2022-12-04T13:59:28.484Z,94580.28
2022-12-04T14:02:08.218Z,94572.91
2022-12-04T14:04:47.328Z,94576.41
2022-12-04T14:07:29.226Z,94577.00
2022-12-04T14:09:58.825Z,94568.44
2022-12-04T14:12:33.694Z,94555.47
2022-12-04T14:15:08.146Z,94553.78
2022-12-04T14:17:36.772Z,94565.69
2022-12-04T14:20:08.485Z,94543.56
2022-12-04T14:22:38.098Z,94557.97
2022-12-04T14:25:23.319Z,94557.97
2022-12-04T14:27:52.470Z,94554.56
2022-12-04T14:30:20.614Z,94555.59
2022-12-04T14:32:50.254Z,94553.16
2022-12-04T14:35:23.769Z,94536.31
2022-12-04T14:37:55.597Z,94538.56
2022-12-04T14:40:34.526Z,94535.97
2022-12-04T14:43:01.263Z,94546.25
2022-12-04T14:45:45.354Z,94547.47
2022-12-04T14:48:42.006Z,94534.41
2022-12-04T14:51:11.646Z,94530.34
2022-12-04T14:53:43.979Z,94529.53
2022-12-04T14:56:22.636Z,94538.81
2022-12-04T14:58:49.655Z,94534.69
2022-12-04T15:01:28.999Z,94550.44
2022-12-04T15:03:59.465Z,94560.72
2022-12-04T15:06:31.593Z,94557.88
2022-12-04T15:09:22.960Z,94563.16
2022-12-04T15:12:10.413Z,94558.19
2022-12-04T15:14:48.216Z,94561.81
2022-12-04T15:17:17.827Z,94562.25
2022-12-04T15:19:45.809Z,94562.16
2022-12-04T15:22:21.253Z,94567.97
2022-12-04T15:24:47.792Z,94577.53
2022-12-04T15:27:17.192Z,94578.03
2022-12-04T15:29:48.406Z,94583.91
2022-12-04T15:32:18.369Z,94576.09
2022-12-04T15:34:53.092Z,94586.31
2022-12-04T15:37:31.439Z,94578.22
2022-12-04T15:39:59.311Z,94587.00
2022-12-04T15:42:30.315Z,94585.00
2022-12-04T15:45:01.588Z,94584.41
2022-12-04T15:47:37.102Z,94591.63
2022-12-04T15:50:15.977Z,94590.25
2022-12-04T15:52:52.653Z,94582.97
2022-12-04T15:55:21.563Z,94585.28
2022-12-04T15:57:55.754Z,94599.69
2022-12-04T16:00:38.536Z,94597.63
2022-12-04T16:03:43.700Z,94592.94
2022-12-04T16:06:28.759Z,94596.28
2022-12-04T16:08:58.266Z,94598.72
2022-12-04T16:11:29.462Z,94593.78
2022-12-04T16:14:09.365Z,94602.06
2022-12-04T16:16:38.649Z,94605.84
2022-12-04T16:19:12.582Z,94611.56
2022-12-04T16:21:39.178Z,94609.13
2022-12-04T16:24:06.843Z,94622.09
2022-12-04T16:26:34.041Z,94633.44
2022-12-04T16:29:00.642Z,94635.66
2022-12-04T16:31:27.429Z,94631.44
2022-12-04T16:33:54.030Z,94641.03
2022-12-04T16:36:20.783Z,94650.47
2022-12-04T16:38:47.356Z,94649.19
2022-12-04T16:41:15.734Z,94654.16
2022-12-04T16:43:42.772Z,94649.44
2022-12-04T16:46:15.657Z,94671.38
2022-12-04T16:48:43.455Z,94669.47
2022-12-04T16:51:24.352Z,94661.13
2022-12-04T16:53:52.109Z,94678.94
2022-12-04T16:56:19.766Z,94676.44
2022-12-04T16:58:46.450Z,94677.66
2022-12-04T17:01:25.298Z,94683.09
2022-12-04T17:03:52.629Z,94691.41
2022-12-04T17:06:19.579Z,94691.78
2022-12-04T17:08:46.333Z,94690.41
2022-12-04T17:11:14.787Z,94687.81
2022-12-04T17:13:41.646Z,94697.91
2022-12-04T17:16:09.093Z,94695.53
2022-12-04T17:18:35.675Z,94713.91
2022-12-04T17:21:10.929Z,94723.47
2022-12-04T17:23:37.655Z,94719.09
2022-12-04T17:26:06.540Z,94728.44
2022-12-04T17:28:33.757Z,94735.69
2022-12-04T17:31:02.529Z,94730.19
2022-12-04T17:33:29.141Z,94725.06
2022-12-04T17:35:56.199Z,94718.66
2022-12-04T17:38:22.789Z,94724.41
2022-12-04T17:41:00.980Z,94718.09
2022-12-04T17:43:31.831Z,94728.00
2022-12-04T17:45:58.807Z,94721.59
2022-12-04T17:48:26.341Z,94732.66
2022-12-04T17:51:19.757Z,94732.41
2022-12-04T17:53:47.319Z,94710.81
2022-12-04T17:56:17.408Z,94728.56
2022-12-04T17:58:45.015Z,94719.47
2022-12-04T18:01:23.059Z,94713.09
2022-12-04T18:03:51.794Z,94724.50
2022-12-04T18:06:26.926Z,94723.53
2022-12-04T18:08:54.129Z,94716.50
2022-12-04T18:11:23.552Z,94717.03
2022-12-04T18:13:59.418Z,94716.88
2022-12-04T18:16:27.873Z,94718.41
2022-12-04T18:18:55.924Z,94731.50
2022-12-04T18:21:23.124Z,94745.97
2022-12-04T18:23:50.218Z,94759.59
2022-12-04T18:26:22.121Z,94757.19
2022-12-04T18:28:49.872Z,94764.59
2022-12-04T18:31:18.513Z,94764.69
2022-12-04T18:33:45.797Z,94765.44
2022-12-04T18:36:16.190Z,94758.41
2022-12-04T18:38:43.009Z,94762.94
2022-12-04T18:41:11.585Z,94746.41
2022-12-04T18:43:40.932Z,94767.13
2022-12-04T18:46:10.939Z,94778.88
2022-12-04T18:48:38.532Z,94766.66
2022-12-04T18:51:29.459Z,94765.31
2022-12-04T18:53:59.990Z,94759.16
2022-12-04T18:56:27.165Z,94770.63
2022-12-04T18:59:02.139Z,94776.53
2022-12-04T19:01:31.202Z,94770.06
2022-12-04T19:04:00.174Z,94771.09
2022-12-04T19:06:31.580Z,94770.81
2022-12-04T19:09:04.869Z,94766.72
2022-12-04T19:11:32.176Z,94767.38
2022-12-04T19:13:59.570Z,94751.75
2022-12-04T19:16:26.574Z,94746.66
2022-12-04T19:18:53.249Z,94722.84
2022-12-04T19:21:19.971Z,94714.41
2022-12-04T19:23:55.116Z,94707.84
2022-12-04T19:26:21.664Z,94729.84
2022-12-04T19:28:48.234Z,94740.13
2022-12-04T19:31:20.301Z,94744.03
2022-12-04T19:33:47.526Z,94747.34
2022-12-04T19:36:14.647Z,94754.25
2022-12-04T19:38:41.872Z,94746.50
2022-12-04T19:41:13.850Z,94778.72
2022-12-04T19:43:43.463Z,94800.59
2022-12-04T19:46:12.866Z,94808.25
2022-12-04T19:48:40.024Z,94780.06
2022-12-04T19:51:12.358Z,94767.56
2022-12-04T19:53:41.128Z,94772.53
2022-12-04T19:56:11.633Z,94776.22
2022-12-04T19:58:38.551Z,94777.91
2022-12-04T20:01:06.861Z,94785.53
2022-12-04T20:03:34.472Z,94780.06
2022-12-04T20:06:05.689Z,94780.81
2022-12-04T20:08:32.644Z,94787.16
2022-12-04T20:11:07.415Z,94807.78
2022-12-04T20:13:36.802Z,94813.13
2022-12-04T20:16:05.085Z,94807.59
2022-12-04T20:18:32.056Z,94814.47
2022-12-04T20:20:59.920Z,94824.38
2022-12-04T20:23:27.887Z,94825.88
2022-12-04T20:25:54.907Z,94832.34
2022-12-04T20:28:22.510Z,94831.53
2022-12-04T20:30:49.979Z,94840.69
2022-12-04T20:33:16.718Z,94834.38
2022-12-04T20:35:43.284Z,94848.50
2022-12-04T20:38:09.821Z,94845.88
2022-12-04T20:40:36.579Z,94838.09
2022-12-04T20:43:03.174Z,94845.81
2022-12-04T20:45:30.737Z,94839.19
2022-12-04T20:47:57.319Z,94843.31
2022-12-04T20:50:24.333Z,94841.66
2022-12-04T20:52:51.026Z,94832.63
2022-12-04T20:55:17.725Z,94832.25
2022-12-04T20:57:44.269Z,94827.94
2022-12-04T21:00:11.502Z,94826.31
2022-12-04T21:02:38.121Z,94824.19
2022-12-04T21:05:05.012Z,94816.97
2022-12-04T21:07:31.554Z,94847.50
2022-12-04T21:09:59.194Z,94877.47
2022-12-04T21:12:44.814Z,94871.34
2022-12-04T21:15:29.745Z,94854.38
2022-12-04T21:17:56.237Z,94866.91
2022-12-04T21:20:22.825Z,94868.56
2022-12-04T21:22:49.383Z,94874.53
2022-12-04T21:25:15.947Z,94883.19
2022-12-04T21:27:42.524Z,94888.81
2022-12-04T21:30:09.756Z,94899.28
2022-12-04T21:32:36.490Z,94906.56
2022-12-04T21:35:03.975Z,94899.97
2022-12-04T21:37:30.501Z,94915.44
2022-12-04T21:39:58.182Z,94917.59
2022-12-04T21:42:33.119Z,94925.19
2022-12-04T21:45:01.184Z,94937.44
2022-12-04T21:47:28.750Z,94951.03
2022-12-04T21:49:55.751Z,94955.41
2022-12-04T21:52:22.741Z,94953.13
2022-12-04T21:54:53.352Z,94957.81
2022-12-04T21:57:21.053Z,94970.16
2022-12-04T21:59:47.705Z,94963.19
2022-12-04T22:02:15.330Z,94968.47
2022-12-04T22:04:42.852Z,94945.91
2022-12-04T22:07:09.948Z,94950.81
2022-12-04T22:09:37.559Z,94944.97
2022-12-04T22:12:26.292Z,94951.03
2022-12-04T22:14:51.077Z,94955.75
2022-12-04T22:17:17.813Z,94961.25
2022-12-04T22:19:44.282Z,94963.84
2022-12-04T22:22:10.825Z,94971.41
2022-12-04T22:24:37.512Z,94975.34
2022-12-04T22:27:04.031Z,94980.91
2022-12-04T22:32:17.332Z,94983.72
2022-12-04T22:34:43.811Z,94992.06
2022-12-04T22:37:10.346Z,94999.72
2022-12-04T22:39:36.872Z,95007.75
2022-12-04T22:42:04.040Z,95002.25
2022-12-04T22:44:30.539Z,95003.25
2022-12-04T22:46:57.351Z,95009.31
2022-12-04T22:49:23.987Z,95013.84
2022-12-04T22:51:50.529Z,95009.63
2022-12-04T22:54:17.127Z,95013.56
2022-12-04T22:56:44.221Z,95018.06
2022-12-04T22:59:10.860Z,95019.94
2022-12-04T23:01:37.460Z,95016.28
2022-12-04T23:04:04.764Z,95019.00
2022-12-04T23:06:33.204Z,95013.25
2022-12-04T23:09:02.643Z,95013.25
2022-12-04T23:11:29.397Z,95021.66
2022-12-04T23:14:06.432Z,95015.72
2022-12-04T23:16:35.430Z,95007.22
2022-12-04T23:19:02.461Z,95023.53
2022-12-04T23:21:29.541Z,95023.13
2022-12-04T23:23:56.904Z,95040.38
2022-12-04T23:26:27.241Z,95031.47
2022-12-04T23:28:55.412Z,95029.94
2022-12-04T23:31:22.034Z,95028.59
2022-12-04T23:33:49.254Z,95028.50
2022-12-04T23:36:16.516Z,95026.94
2022-12-04T23:38:44.377Z,95031.94
2022-12-04T23:41:16.755Z,95040.25
2022-12-04T23:43:44.311Z,95048.81
2022-12-04T23:46:13.584Z,95045.97
2022-12-04T23:48:40.947Z,95045.34
2022-12-04T23:51:08.972Z,95032.31
2022-12-04T23:53:36.374Z,95038.91
2022-12-04T23:56:15.302Z,95042.22
2022-12-04T23:58:43.879Z,95042.97
